sensor_id;sensor_type;location;lat;lon;timestamp;temperature;humidity
47382;DHT22;33128;51.580;5.170;2023-06-26T00:00:45;23.50;99.90
47382;DHT22;33128;51.580;5.170;2023-06-26T00:03:13;23.60;99.90
47382;DHT22;33128;51.580;5.170;2023-06-26T00:05:43;23.60;99.90
47382;DHT22;33128;51.580;5.170;2023-06-26T00:08:11;23.60;99.90
47382;DHT22;33128;51.580;5.170;2023-06-26T00:10:37;23.60;99.90
47382;DHT22;33128;51.580;5.170;2023-06-26T00:13:03;23.50;99.90
47382;DHT22;33128;51.580;5.170;2023-06-26T00:15:31;23.70;99.90
47382;DHT22;33128;51.580;5.170;2023-06-26T00:17:58;23.50;99.90
47382;DHT22;33128;51.580;5.170;2023-06-26T00:20:24;23.50;99.90
47382;DHT22;33128;51.580;5.170;2023-06-26T00:22:50;23.60;99.90
47382;DHT22;33128;51.580;5.170;2023-06-26T00:25:16;23.60;99.90
47382;DHT22;33128;51.580;5.170;2023-06-26T00:27:42;23.50;99.90
47382;DHT22;33128;51.580;5.170;2023-06-26T00:30:08;23.40;99.90
47382;DHT22;33128;51.580;5.170;2023-06-26T00:32:33;23.50;99.90
47382;DHT22;33128;51.580;5.170;2023-06-26T00:34:59;23.70;99.90
47382;DHT22;33128;51.580;5.170;2023-06-26T00:37:25;23.60;99.90
47382;DHT22;33128;51.580;5.170;2023-06-26T00:39:50;23.40;99.90
47382;DHT22;33128;51.580;5.170;2023-06-26T00:42:16;23.20;99.90
47382;DHT22;33128;51.580;5.170;2023-06-26T00:44:41;23.10;99.90
47382;DHT22;33128;51.580;5.170;2023-06-26T00:47:14;23.20;99.90
47382;DHT22;33128;51.580;5.170;2023-06-26T00:49:40;23.10;99.90
47382;DHT22;33128;51.580;5.170;2023-06-26T00:52:06;23.00;99.90
47382;DHT22;33128;51.580;5.170;2023-06-26T00:54:31;23.00;99.90
47382;DHT22;33128;51.580;5.170;2023-06-26T00:56:57;22.80;99.90
47382;DHT22;33128;51.580;5.170;2023-06-26T00:59:23;22.70;99.90
47382;DHT22;33128;51.580;5.170;2023-06-26T01:01:49;22.90;99.90
47382;DHT22;33128;51.580;5.170;2023-06-26T01:04:15;23.00;99.90
47382;DHT22;33128;51.580;5.170;2023-06-26T01:06:46;23.20;99.90
47382;DHT22;33128;51.580;5.170;2023-06-26T01:09:22;23.50;99.90
47382;DHT22;33128;51.580;5.170;2023-06-26T01:11:48;23.50;99.90
47382;DHT22;33128;51.580;5.170;2023-06-26T01:14:14;23.50;99.90
47382;DHT22;33128;51.580;5.170;2023-06-26T01:16:41;23.40;99.90
47382;DHT22;33128;51.580;5.170;2023-06-26T01:19:19;23.40;99.90
47382;DHT22;33128;51.580;5.170;2023-06-26T01:21:54;23.30;99.90
47382;DHT22;33128;51.580;5.170;2023-06-26T01:24:25;23.10;99.90
47382;DHT22;33128;51.580;5.170;2023-06-26T01:26:58;23.10;99.90
47382;DHT22;33128;51.580;5.170;2023-06-26T01:29:25;23.10;99.90
47382;DHT22;33128;51.580;5.170;2023-06-26T01:31:51;23.10;99.90
47382;DHT22;33128;51.580;5.170;2023-06-26T01:34:17;23.00;99.90
47382;DHT22;33128;51.580;5.170;2023-06-26T01:36:52;23.20;99.90
47382;DHT22;33128;51.580;5.170;2023-06-26T01:39:21;23.10;99.90
47382;DHT22;33128;51.580;5.170;2023-06-26T01:41:46;23.10;99.90
47382;DHT22;33128;51.580;5.170;2023-06-26T01:44:24;22.90;99.90
47382;DHT22;33128;51.580;5.170;2023-06-26T01:46:59;22.90;99.90
47382;DHT22;33128;51.580;5.170;2023-06-26T01:52:20;22.80;99.90
47382;DHT22;33128;51.580;5.170;2023-06-26T01:55:12;23.00;99.90
47382;DHT22;33128;51.580;5.170;2023-06-26T01:57:41;22.70;99.90
47382;DHT22;33128;51.580;5.170;2023-06-26T02:00:11;22.60;99.90
47382;DHT22;33128;51.580;5.170;2023-06-26T02:02:36;22.60;99.90
47382;DHT22;33128;51.580;5.170;2023-06-26T02:05:02;22.60;99.90
47382;DHT22;33128;51.580;5.170;2023-06-26T02:07:28;22.60;99.90
47382;DHT22;33128;51.580;5.170;2023-06-26T02:09:54;22.70;99.90
47382;DHT22;33128;51.580;5.170;2023-06-26T02:12:20;22.70;99.90
47382;DHT22;33128;51.580;5.170;2023-06-26T02:14:48;22.60;99.90
47382;DHT22;33128;51.580;5.170;2023-06-26T02:17:15;22.50;99.90
47382;DHT22;33128;51.580;5.170;2023-06-26T02:19:40;22.50;99.90
47382;DHT22;33128;51.580;5.170;2023-06-26T02:22:16;22.50;99.90
47382;DHT22;33128;51.580;5.170;2023-06-26T02:24:43;22.20;99.90
47382;DHT22;33128;51.580;5.170;2023-06-26T02:27:09;22.10;99.90
47382;DHT22;33128;51.580;5.170;2023-06-26T02:29:35;22.20;99.90
47382;DHT22;33128;51.580;5.170;2023-06-26T02:32:01;22.20;99.90
47382;DHT22;33128;51.580;5.170;2023-06-26T02:34:27;22.20;99.90
47382;DHT22;33128;51.580;5.170;2023-06-26T02:36:53;22.10;99.90
47382;DHT22;33128;51.580;5.170;2023-06-26T02:39:21;22.00;99.90
47382;DHT22;33128;51.580;5.170;2023-06-26T02:41:47;21.80;99.90
47382;DHT22;33128;51.580;5.170;2023-06-26T02:44:13;22.00;99.90
47382;DHT22;33128;51.580;5.170;2023-06-26T02:46:40;21.90;99.90
47382;DHT22;33128;51.580;5.170;2023-06-26T02:49:06;21.80;99.90
47382;DHT22;33128;51.580;5.170;2023-06-26T02:51:32;21.90;99.90
47382;DHT22;33128;51.580;5.170;2023-06-26T02:53:58;21.90;99.90
47382;DHT22;33128;51.580;5.170;2023-06-26T02:56:24;21.80;99.90
47382;DHT22;33128;51.580;5.170;2023-06-26T02:58:54;21.80;99.90
47382;DHT22;33128;51.580;5.170;2023-06-26T03:01:20;21.70;99.90
47382;DHT22;33128;51.580;5.170;2023-06-26T03:03:46;21.70;99.90
47382;DHT22;33128;51.580;5.170;2023-06-26T03:06:12;21.70;99.90
47382;DHT22;33128;51.580;5.170;2023-06-26T03:08:39;21.70;99.90
47382;DHT22;33128;51.580;5.170;2023-06-26T03:11:06;21.60;99.90
47382;DHT22;33128;51.580;5.170;2023-06-26T03:13:33;21.70;99.90
47382;DHT22;33128;51.580;5.170;2023-06-26T03:15:59;21.60;99.90
47382;DHT22;33128;51.580;5.170;2023-06-26T03:18:28;21.50;99.90
47382;DHT22;33128;51.580;5.170;2023-06-26T03:20:55;21.50;99.90
47382;DHT22;33128;51.580;5.170;2023-06-26T03:23:21;21.40;99.90
47382;DHT22;33128;51.580;5.170;2023-06-26T03:25:47;21.70;99.90
47382;DHT22;33128;51.580;5.170;2023-06-26T03:28:13;21.70;99.90
47382;DHT22;33128;51.580;5.170;2023-06-26T03:30:39;21.50;99.90
47382;DHT22;33128;51.580;5.170;2023-06-26T03:33:05;21.50;99.90
47382;DHT22;33128;51.580;5.170;2023-06-26T03:35:30;21.30;99.90
47382;DHT22;33128;51.580;5.170;2023-06-26T03:37:56;21.30;99.90
47382;DHT22;33128;51.580;5.170;2023-06-26T03:40:26;21.40;99.90
47382;DHT22;33128;51.580;5.170;2023-06-26T03:42:51;21.20;99.90
47382;DHT22;33128;51.580;5.170;2023-06-26T03:45:17;21.30;99.90
47382;DHT22;33128;51.580;5.170;2023-06-26T03:47:44;20.80;99.90
47382;DHT22;33128;51.580;5.170;2023-06-26T03:50:12;20.60;99.90
47382;DHT22;33128;51.580;5.170;2023-06-26T03:52:38;20.50;99.90
47382;DHT22;33128;51.580;5.170;2023-06-26T03:55:04;20.40;99.90
47382;DHT22;33128;51.580;5.170;2023-06-26T03:57:32;20.40;99.90
47382;DHT22;33128;51.580;5.170;2023-06-26T03:59:58;20.50;99.90
47382;DHT22;33128;51.580;5.170;2023-06-26T04:02:23;20.40;99.90
47382;DHT22;33128;51.580;5.170;2023-06-26T04:04:49;20.40;99.90
47382;DHT22;33128;51.580;5.170;2023-06-26T04:07:14;20.30;99.90
47382;DHT22;33128;51.580;5.170;2023-06-26T04:09:40;20.50;99.90
47382;DHT22;33128;51.580;5.170;2023-06-26T04:12:06;20.50;99.90
47382;DHT22;33128;51.580;5.170;2023-06-26T04:14:32;20.60;99.90
47382;DHT22;33128;51.580;5.170;2023-06-26T04:16:59;20.50;99.90
47382;DHT22;33128;51.580;5.170;2023-06-26T04:19:27;20.50;99.90
47382;DHT22;33128;51.580;5.170;2023-06-26T04:21:52;20.60;99.90
47382;DHT22;33128;51.580;5.170;2023-06-26T04:24:18;20.70;99.90
47382;DHT22;33128;51.580;5.170;2023-06-26T04:26:44;20.20;99.90
47382;DHT22;33128;51.580;5.170;2023-06-26T04:29:10;20.50;99.90
47382;DHT22;33128;51.580;5.170;2023-06-26T04:31:36;20.40;99.90
47382;DHT22;33128;51.580;5.170;2023-06-26T04:34:02;20.40;99.90
47382;DHT22;33128;51.580;5.170;2023-06-26T04:36:27;20.40;99.90
47382;DHT22;33128;51.580;5.170;2023-06-26T04:38:57;20.10;99.90
47382;DHT22;33128;51.580;5.170;2023-06-26T04:41:24;20.10;99.90
47382;DHT22;33128;51.580;5.170;2023-06-26T04:43:52;20.40;99.90
47382;DHT22;33128;51.580;5.170;2023-06-26T04:46:18;20.40;99.90
47382;DHT22;33128;51.580;5.170;2023-06-26T04:48:44;20.40;99.90
47382;DHT22;33128;51.580;5.170;2023-06-26T04:51:11;20.30;99.90
47382;DHT22;33128;51.580;5.170;2023-06-26T04:53:36;20.30;99.90
47382;DHT22;33128;51.580;5.170;2023-06-26T04:56:02;20.30;99.90
47382;DHT22;33128;51.580;5.170;2023-06-26T04:58:28;20.20;99.90
47382;DHT22;33128;51.580;5.170;2023-06-26T05:00:54;20.10;99.90
47382;DHT22;33128;51.580;5.170;2023-06-26T05:03:19;20.30;99.90
47382;DHT22;33128;51.580;5.170;2023-06-26T05:05:46;20.30;99.90
47382;DHT22;33128;51.580;5.170;2023-06-26T05:08:22;20.10;99.90
47382;DHT22;33128;51.580;5.170;2023-06-26T05:10:48;20.20;99.90
47382;DHT22;33128;51.580;5.170;2023-06-26T05:13:14;20.30;99.90
47382;DHT22;33128;51.580;5.170;2023-06-26T05:15:45;20.30;99.90
47382;DHT22;33128;51.580;5.170;2023-06-26T05:18:11;20.10;99.90
47382;DHT22;33128;51.580;5.170;2023-06-26T05:20:37;19.90;99.90
47382;DHT22;33128;51.580;5.170;2023-06-26T05:23:03;19.90;99.90
47382;DHT22;33128;51.580;5.170;2023-06-26T05:25:30;19.90;99.90
47382;DHT22;33128;51.580;5.170;2023-06-26T05:27:56;20.70;99.90
47382;DHT22;33128;51.580;5.170;2023-06-26T05:30:26;21.20;99.90
47382;DHT22;33128;51.580;5.170;2023-06-26T05:32:53;21.60;99.90
47382;DHT22;33128;51.580;5.170;2023-06-26T05:35:20;21.70;99.90
47382;DHT22;33128;51.580;5.170;2023-06-26T05:37:49;21.90;99.90
47382;DHT22;33128;51.580;5.170;2023-06-26T05:40:16;22.00;99.90
47382;DHT22;33128;51.580;5.170;2023-06-26T05:42:42;22.10;99.90
47382;DHT22;33128;51.580;5.170;2023-06-26T05:45:09;22.20;99.90
47382;DHT22;33128;51.580;5.170;2023-06-26T05:47:35;22.20;99.90
47382;DHT22;33128;51.580;5.170;2023-06-26T05:50:02;22.20;99.90
47382;DHT22;33128;51.580;5.170;2023-06-26T05:52:28;22.30;99.90
47382;DHT22;33128;51.580;5.170;2023-06-26T05:54:55;22.40;99.90
47382;DHT22;33128;51.580;5.170;2023-06-26T05:57:24;22.50;99.90
47382;DHT22;33128;51.580;5.170;2023-06-26T05:59:51;22.50;99.90
47382;DHT22;33128;51.580;5.170;2023-06-26T06:02:16;22.40;99.90
47382;DHT22;33128;51.580;5.170;2023-06-26T06:04:42;22.50;99.90
47382;DHT22;33128;51.580;5.170;2023-06-26T06:07:08;22.50;99.90
47382;DHT22;33128;51.580;5.170;2023-06-26T06:09:33;22.50;99.90
47382;DHT22;33128;51.580;5.170;2023-06-26T06:11:59;22.60;99.90
47382;DHT22;33128;51.580;5.170;2023-06-26T06:14:27;22.60;99.90
47382;DHT22;33128;51.580;5.170;2023-06-26T06:16:52;22.60;99.90
47382;DHT22;33128;51.580;5.170;2023-06-26T06:19:18;22.60;99.90
47382;DHT22;33128;51.580;5.170;2023-06-26T06:21:43;22.70;99.90
47382;DHT22;33128;51.580;5.170;2023-06-26T06:24:09;22.70;99.90
47382;DHT22;33128;51.580;5.170;2023-06-26T06:26:35;22.70;99.90
47382;DHT22;33128;51.580;5.170;2023-06-26T06:29:01;22.80;99.90
47382;DHT22;33128;51.580;5.170;2023-06-26T06:31:26;22.70;99.90
47382;DHT22;33128;51.580;5.170;2023-06-26T06:33:54;22.70;99.90
47382;DHT22;33128;51.580;5.170;2023-06-26T06:36:20;22.80;99.90
47382;DHT22;33128;51.580;5.170;2023-06-26T06:38:45;22.90;99.90
47382;DHT22;33128;51.580;5.170;2023-06-26T06:41:11;22.90;99.90
47382;DHT22;33128;51.580;5.170;2023-06-26T06:43:38;22.90;99.90
47382;DHT22;33128;51.580;5.170;2023-06-26T06:46:04;23.00;99.90
47382;DHT22;33128;51.580;5.170;2023-06-26T06:48:30;23.00;99.90
47382;DHT22;33128;51.580;5.170;2023-06-26T06:50:56;23.10;99.90
47382;DHT22;33128;51.580;5.170;2023-06-26T06:53:22;23.10;99.90
47382;DHT22;33128;51.580;5.170;2023-06-26T06:55:51;23.10;99.90
47382;DHT22;33128;51.580;5.170;2023-06-26T06:58:17;23.20;99.90
47382;DHT22;33128;51.580;5.170;2023-06-26T07:00:44;23.20;99.90
47382;DHT22;33128;51.580;5.170;2023-06-26T07:03:10;23.10;99.90
47382;DHT22;33128;51.580;5.170;2023-06-26T07:05:36;22.60;99.90
47382;DHT22;33128;51.580;5.170;2023-06-26T07:08:02;22.20;99.90
47382;DHT22;33128;51.580;5.170;2023-06-26T07:10:28;22.40;99.90
47382;DHT22;33128;51.580;5.170;2023-06-26T07:12:54;22.40;99.90
47382;DHT22;33128;51.580;5.170;2023-06-26T07:15:19;22.30;99.90
47382;DHT22;33128;51.580;5.170;2023-06-26T07:17:45;22.30;99.90
47382;DHT22;33128;51.580;5.170;2023-06-26T07:20:11;22.30;99.90
47382;DHT22;33128;51.580;5.170;2023-06-26T07:22:41;22.50;99.90
47382;DHT22;33128;51.580;5.170;2023-06-26T07:25:07;22.50;99.90
47382;DHT22;33128;51.580;5.170;2023-06-26T07:27:39;22.50;99.90
47382;DHT22;33128;51.580;5.170;2023-06-26T07:30:06;22.50;99.90
47382;DHT22;33128;51.580;5.170;2023-06-26T07:32:34;22.50;99.90
47382;DHT22;33128;51.580;5.170;2023-06-26T07:35:00;22.50;99.90
47382;DHT22;33128;51.580;5.170;2023-06-26T07:37:25;22.50;99.90
47382;DHT22;33128;51.580;5.170;2023-06-26T07:39:51;22.60;99.90
47382;DHT22;33128;51.580;5.170;2023-06-26T07:42:16;22.70;99.90
47382;DHT22;33128;51.580;5.170;2023-06-26T07:44:42;22.80;99.90
47382;DHT22;33128;51.580;5.170;2023-06-26T07:47:08;22.80;99.90
47382;DHT22;33128;51.580;5.170;2023-06-26T07:49:34;22.80;99.90
47382;DHT22;33128;51.580;5.170;2023-06-26T07:52:00;22.60;99.90
47382;DHT22;33128;51.580;5.170;2023-06-26T07:54:25;22.60;99.90
47382;DHT22;33128;51.580;5.170;2023-06-26T07:56:58;22.60;99.90
47382;DHT22;33128;51.580;5.170;2023-06-26T07:59:25;22.60;99.90
47382;DHT22;33128;51.580;5.170;2023-06-26T08:01:52;22.70;99.90
47382;DHT22;33128;51.580;5.170;2023-06-26T08:04:19;22.70;99.90
47382;DHT22;33128;51.580;5.170;2023-06-26T08:06:48;22.50;99.90
47382;DHT22;33128;51.580;5.170;2023-06-26T08:09:14;22.60;99.90
47382;DHT22;33128;51.580;5.170;2023-06-26T08:11:40;22.70;99.90
47382;DHT22;33128;51.580;5.170;2023-06-26T08:14:05;22.50;99.90
47382;DHT22;33128;51.580;5.170;2023-06-26T08:16:31;22.50;99.90
47382;DHT22;33128;51.580;5.170;2023-06-26T08:18:57;22.50;99.90
47382;DHT22;33128;51.580;5.170;2023-06-26T08:21:22;22.50;99.90
47382;DHT22;33128;51.580;5.170;2023-06-26T08:23:48;22.50;99.90
47382;DHT22;33128;51.580;5.170;2023-06-26T08:26:13;22.50;99.90
47382;DHT22;33128;51.580;5.170;2023-06-26T08:28:39;22.60;99.90
47382;DHT22;33128;51.580;5.170;2023-06-26T08:31:05;22.70;99.90
47382;DHT22;33128;51.580;5.170;2023-06-26T08:33:33;22.60;99.90
47382;DHT22;33128;51.580;5.170;2023-06-26T08:35:59;22.50;99.90
47382;DHT22;33128;51.580;5.170;2023-06-26T08:38:24;22.50;99.90
47382;DHT22;33128;51.580;5.170;2023-06-26T08:40:50;22.50;99.90
47382;DHT22;33128;51.580;5.170;2023-06-26T08:43:16;22.40;99.90
47382;DHT22;33128;51.580;5.170;2023-06-26T08:45:41;22.50;99.90
47382;DHT22;33128;51.580;5.170;2023-06-26T08:48:08;22.50;99.90
47382;DHT22;33128;51.580;5.170;2023-06-26T08:50:35;22.50;99.90
47382;DHT22;33128;51.580;5.170;2023-06-26T08:53:04;22.60;99.90
47382;DHT22;33128;51.580;5.170;2023-06-26T08:55:37;22.70;99.90
47382;DHT22;33128;51.580;5.170;2023-06-26T08:58:04;22.70;99.90
47382;DHT22;33128;51.580;5.170;2023-06-26T09:00:30;22.80;99.90
47382;DHT22;33128;51.580;5.170;2023-06-26T09:02:56;22.90;99.90
47382;DHT22;33128;51.580;5.170;2023-06-26T09:05:22;22.90;99.90
47382;DHT22;33128;51.580;5.170;2023-06-26T09:07:47;22.80;99.90
47382;DHT22;33128;51.580;5.170;2023-06-26T09:10:13;22.80;99.90
47382;DHT22;33128;51.580;5.170;2023-06-26T09:12:45;22.80;99.90
47382;DHT22;33128;51.580;5.170;2023-06-26T09:15:14;22.90;99.90
47382;DHT22;33128;51.580;5.170;2023-06-26T09:17:40;22.80;99.90
47382;DHT22;33128;51.580;5.170;2023-06-26T09:20:08;22.90;99.90
47382;DHT22;33128;51.580;5.170;2023-06-26T09:22:36;23.00;99.90
47382;DHT22;33128;51.580;5.170;2023-06-26T09:25:04;22.90;99.90
47382;DHT22;33128;51.580;5.170;2023-06-26T09:27:30;22.90;99.90
47382;DHT22;33128;51.580;5.170;2023-06-26T09:29:58;22.90;99.90
47382;DHT22;33128;51.580;5.170;2023-06-26T09:32:27;22.90;99.90
47382;DHT22;33128;51.580;5.170;2023-06-26T09:34:55;23.00;99.90
47382;DHT22;33128;51.580;5.170;2023-06-26T09:37:21;23.10;99.90
47382;DHT22;33128;51.580;5.170;2023-06-26T09:39:52;23.10;99.90
47382;DHT22;33128;51.580;5.170;2023-06-26T09:42:19;23.10;99.90
47382;DHT22;33128;51.580;5.170;2023-06-26T09:44:46;23.00;99.90
47382;DHT22;33128;51.580;5.170;2023-06-26T09:47:12;23.10;99.90
47382;DHT22;33128;51.580;5.170;2023-06-26T09:49:41;23.10;99.90
47382;DHT22;33128;51.580;5.170;2023-06-26T09:52:08;23.10;99.90
47382;DHT22;33128;51.580;5.170;2023-06-26T09:54:34;23.10;99.90
47382;DHT22;33128;51.580;5.170;2023-06-26T09:57:14;23.20;99.90
47382;DHT22;33128;51.580;5.170;2023-06-26T09:59:41;23.30;99.90
47382;DHT22;33128;51.580;5.170;2023-06-26T10:02:07;23.20;99.90
47382;DHT22;33128;51.580;5.170;2023-06-26T10:04:34;23.20;99.90
47382;DHT22;33128;51.580;5.170;2023-06-26T10:07:04;23.20;99.90
47382;DHT22;33128;51.580;5.170;2023-06-26T10:09:30;23.10;99.90
47382;DHT22;33128;51.580;5.170;2023-06-26T10:14:27;23.10;99.90
47382;DHT22;33128;51.580;5.170;2023-06-26T10:16:58;23.20;99.90
47382;DHT22;33128;51.580;5.170;2023-06-26T10:19:25;23.10;99.90
47382;DHT22;33128;51.580;5.170;2023-06-26T10:21:53;23.00;99.90
47382;DHT22;33128;51.580;5.170;2023-06-26T10:24:20;23.00;99.90
47382;DHT22;33128;51.580;5.170;2023-06-26T10:26:50;23.20;99.90
47382;DHT22;33128;51.580;5.170;2023-06-26T10:29:17;23.30;99.90
47382;DHT22;33128;51.580;5.170;2023-06-26T10:31:51;23.30;99.90
47382;DHT22;33128;51.580;5.170;2023-06-26T10:34:18;23.30;99.90
47382;DHT22;33128;51.580;5.170;2023-06-26T10:36:44;23.30;99.90
47382;DHT22;33128;51.580;5.170;2023-06-26T10:39:10;23.40;99.90
47382;DHT22;33128;51.580;5.170;2023-06-26T10:41:40;23.50;99.90
47382;DHT22;33128;51.580;5.170;2023-06-26T10:44:12;23.50;99.90
47382;DHT22;33128;51.580;5.170;2023-06-26T10:46:54;23.40;99.90
47382;DHT22;33128;51.580;5.170;2023-06-26T10:49:30;23.60;99.90
47382;DHT22;33128;51.580;5.170;2023-06-26T10:52:00;23.30;99.90
47382;DHT22;33128;51.580;5.170;2023-06-26T10:54:29;23.40;99.70
47382;DHT22;33128;51.580;5.170;2023-06-26T10:56:55;23.30;99.90
47382;DHT22;33128;51.580;5.170;2023-06-26T10:59:26;23.40;99.80
47382;DHT22;33128;51.580;5.170;2023-06-26T11:02:21;23.40;99.50
47382;DHT22;33128;51.580;5.170;2023-06-26T11:04:50;23.40;99.20
47382;DHT22;33128;51.580;5.170;2023-06-26T11:07:23;23.40;99.40
47382;DHT22;33128;51.580;5.170;2023-06-26T11:12:40;23.30;98.60
47382;DHT22;33128;51.580;5.170;2023-06-26T11:15:17;23.50;99.60
47382;DHT22;33128;51.580;5.170;2023-06-26T11:17:44;23.60;98.90
47382;DHT22;33128;51.580;5.170;2023-06-26T11:20:14;23.60;99.20
47382;DHT22;33128;51.580;5.170;2023-06-26T11:22:42;23.70;99.10
47382;DHT22;33128;51.580;5.170;2023-06-26T11:25:09;23.60;98.20
47382;DHT22;33128;51.580;5.170;2023-06-26T11:27:38;23.60;99.10
47382;DHT22;33128;51.580;5.170;2023-06-26T11:30:09;23.60;99.00
47382;DHT22;33128;51.580;5.170;2023-06-26T11:32:37;23.60;99.40
47382;DHT22;33128;51.580;5.170;2023-06-26T11:35:03;23.70;98.90
47382;DHT22;33128;51.580;5.170;2023-06-26T11:37:30;23.70;99.10
47382;DHT22;33128;51.580;5.170;2023-06-26T11:39:56;23.70;98.20
47382;DHT22;33128;51.580;5.170;2023-06-26T11:42:22;23.60;98.50
47382;DHT22;33128;51.580;5.170;2023-06-26T11:44:47;23.50;98.10
47382;DHT22;33128;51.580;5.170;2023-06-26T11:47:16;23.70;98.90
47382;DHT22;33128;51.580;5.170;2023-06-26T11:49:46;23.60;98.70
47382;DHT22;33128;51.580;5.170;2023-06-26T11:52:13;23.70;98.70
47382;DHT22;33128;51.580;5.170;2023-06-26T11:54:40;23.70;98.20
47382;DHT22;33128;51.580;5.170;2023-06-26T11:57:06;23.70;97.70
47382;DHT22;33128;51.580;5.170;2023-06-26T11:59:39;23.40;97.00
47382;DHT22;33128;51.580;5.170;2023-06-26T12:02:09;23.40;97.50
47382;DHT22;33128;51.580;5.170;2023-06-26T12:04:37;23.70;97.50
47382;DHT22;33128;51.580;5.170;2023-06-26T12:07:05;23.70;96.80
47382;DHT22;33128;51.580;5.170;2023-06-26T12:09:33;23.80;97.80
47382;DHT22;33128;51.580;5.170;2023-06-26T12:12:00;23.90;96.60
47382;DHT22;33128;51.580;5.170;2023-06-26T12:14:26;24.10;97.30
47382;DHT22;33128;51.580;5.170;2023-06-26T12:16:55;24.00;96.50
47382;DHT22;33128;51.580;5.170;2023-06-26T12:19:25;24.10;96.60
47382;DHT22;33128;51.580;5.170;2023-06-26T12:21:53;24.20;97.50
47382;DHT22;33128;51.580;5.170;2023-06-26T12:24:22;24.10;97.30
47382;DHT22;33128;51.580;5.170;2023-06-26T12:26:53;24.20;97.70
47382;DHT22;33128;51.580;5.170;2023-06-26T12:29:29;24.30;97.10
47382;DHT22;33128;51.580;5.170;2023-06-26T12:31:56;24.30;98.00
47382;DHT22;33128;51.580;5.170;2023-06-26T12:34:33;24.30;97.80
47382;DHT22;33128;51.580;5.170;2023-06-26T12:37:05;24.40;97.60
47382;DHT22;33128;51.580;5.170;2023-06-26T12:39:52;24.30;97.10
47382;DHT22;33128;51.580;5.170;2023-06-26T12:42:20;24.20;96.50
47382;DHT22;33128;51.580;5.170;2023-06-26T12:44:47;24.30;97.10
47382;DHT22;33128;51.580;5.170;2023-06-26T12:47:14;24.40;97.10
47382;DHT22;33128;51.580;5.170;2023-06-26T12:49:42;24.60;97.00
47382;DHT22;33128;51.580;5.170;2023-06-26T12:52:12;24.60;96.70
47382;DHT22;33128;51.580;5.170;2023-06-26T12:54:40;24.50;96.20
47382;DHT22;33128;51.580;5.170;2023-06-26T12:57:06;24.40;95.80
47382;DHT22;33128;51.580;5.170;2023-06-26T12:59:33;24.50;96.30
47382;DHT22;33128;51.580;5.170;2023-06-26T13:01:59;24.50;96.30
47382;DHT22;33128;51.580;5.170;2023-06-26T13:04:25;24.40;96.30
47382;DHT22;33128;51.580;5.170;2023-06-26T13:06:51;24.40;96.50
47382;DHT22;33128;51.580;5.170;2023-06-26T13:09:19;24.50;97.30
47382;DHT22;33128;51.580;5.170;2023-06-26T13:11:45;24.60;96.00
47382;DHT22;33128;51.580;5.170;2023-06-26T13:14:11;24.70;96.20
47382;DHT22;33128;51.580;5.170;2023-06-26T13:16:37;24.70;96.20
47382;DHT22;33128;51.580;5.170;2023-06-26T13:19:03;24.70;96.30
47382;DHT22;33128;51.580;5.170;2023-06-26T13:21:29;24.60;97.20
47382;DHT22;33128;51.580;5.170;2023-06-26T13:23:55;24.50;96.50
47382;DHT22;33128;51.580;5.170;2023-06-26T13:26:21;24.40;96.70
47382;DHT22;33128;51.580;5.170;2023-06-26T13:28:48;24.60;96.80
47382;DHT22;33128;51.580;5.170;2023-06-26T13:31:14;24.80;97.30
47382;DHT22;33128;51.580;5.170;2023-06-26T13:33:40;24.90;96.90
47382;DHT22;33128;51.580;5.170;2023-06-26T13:36:06;25.10;97.80
47382;DHT22;33128;51.580;5.170;2023-06-26T13:38:35;25.10;97.90
47382;DHT22;33128;51.580;5.170;2023-06-26T13:41:01;25.10;97.10
47382;DHT22;33128;51.580;5.170;2023-06-26T13:43:27;25.20;97.30
47382;DHT22;33128;51.580;5.170;2023-06-26T13:45:56;25.20;96.60
47382;DHT22;33128;51.580;5.170;2023-06-26T13:48:22;25.20;96.80
47382;DHT22;33128;51.580;5.170;2023-06-26T13:50:50;25.40;97.40
47382;DHT22;33128;51.580;5.170;2023-06-26T13:53:15;25.30;96.80
47382;DHT22;33128;51.580;5.170;2023-06-26T13:55:44;25.30;95.60
47382;DHT22;33128;51.580;5.170;2023-06-26T13:58:10;25.30;96.40
47382;DHT22;33128;51.580;5.170;2023-06-26T14:00:37;25.30;96.60
47382;DHT22;33128;51.580;5.170;2023-06-26T14:03:04;25.30;95.80
47382;DHT22;33128;51.580;5.170;2023-06-26T14:05:30;25.50;97.30
47382;DHT22;33128;51.580;5.170;2023-06-26T14:07:56;25.60;96.30
47382;DHT22;33128;51.580;5.170;2023-06-26T14:10:24;25.40;93.90
47382;DHT22;33128;51.580;5.170;2023-06-26T14:12:50;25.50;96.50
47382;DHT22;33128;51.580;5.170;2023-06-26T14:15:16;25.40;96.40
47382;DHT22;33128;51.580;5.170;2023-06-26T14:17:42;25.40;95.90
47382;DHT22;33128;51.580;5.170;2023-06-26T14:20:08;25.40;96.20
47382;DHT22;33128;51.580;5.170;2023-06-26T14:22:38;25.40;95.10
47382;DHT22;33128;51.580;5.170;2023-06-26T14:25:04;25.40;96.60
47382;DHT22;33128;51.580;5.170;2023-06-26T14:27:30;25.40;96.90
47382;DHT22;33128;51.580;5.170;2023-06-26T14:29:55;25.50;93.70
47382;DHT22;33128;51.580;5.170;2023-06-26T14:32:21;25.40;93.50
47382;DHT22;33128;51.580;5.170;2023-06-26T14:34:47;25.30;94.50
47382;DHT22;33128;51.580;5.170;2023-06-26T14:37:12;25.30;93.70
47382;DHT22;33128;51.580;5.170;2023-06-26T14:39:38;25.30;94.00
47382;DHT22;33128;51.580;5.170;2023-06-26T14:42:04;25.30;93.10
47382;DHT22;33128;51.580;5.170;2023-06-26T14:44:30;25.10;93.80
47382;DHT22;33128;51.580;5.170;2023-06-26T14:46:56;25.00;94.50
47382;DHT22;33128;51.580;5.170;2023-06-26T14:49:21;25.10;95.10
47382;DHT22;33128;51.580;5.170;2023-06-26T14:51:48;25.10;93.50
47382;DHT22;33128;51.580;5.170;2023-06-26T14:54:14;25.10;94.20
47382;DHT22;33128;51.580;5.170;2023-06-26T14:56:39;25.10;94.20
47382;DHT22;33128;51.580;5.170;2023-06-26T14:59:05;25.30;93.30
47382;DHT22;33128;51.580;5.170;2023-06-26T15:01:33;25.40;94.20
47382;DHT22;33128;51.580;5.170;2023-06-26T15:03:59;25.60;95.00
47382;DHT22;33128;51.580;5.170;2023-06-26T15:06:27;25.60;94.20
47382;DHT22;33128;51.580;5.170;2023-06-26T15:08:53;25.60;93.20
47382;DHT22;33128;51.580;5.170;2023-06-26T15:11:19;25.70;93.40
47382;DHT22;33128;51.580;5.170;2023-06-26T15:13:45;25.70;92.00
47382;DHT22;33128;51.580;5.170;2023-06-26T15:16:10;25.70;92.10
47382;DHT22;33128;51.580;5.170;2023-06-26T15:18:36;25.70;93.00
47382;DHT22;33128;51.580;5.170;2023-06-26T15:21:02;25.60;94.90
47382;DHT22;33128;51.580;5.170;2023-06-26T15:23:28;25.50;94.40
47382;DHT22;33128;51.580;5.170;2023-06-26T15:25:57;25.40;94.30
47382;DHT22;33128;51.580;5.170;2023-06-26T15:28:23;25.50;95.40
47382;DHT22;33128;51.580;5.170;2023-06-26T15:30:48;25.30;94.30
47382;DHT22;33128;51.580;5.170;2023-06-26T15:33:15;25.40;94.10
47382;DHT22;33128;51.580;5.170;2023-06-26T15:35:40;25.40;93.60
47382;DHT22;33128;51.580;5.170;2023-06-26T15:38:06;25.40;93.50